createdAt,value
2023-01-07T00:01:24.778Z,16.60
2023-01-07T00:03:54.220Z,15.20
2023-01-07T00:06:23.523Z,13.10
2023-01-07T00:08:52.227Z,11.70
2023-01-07T00:11:23.221Z,13.30
2023-01-07T00:13:52.633Z,16.20
2023-01-07T00:16:21.965Z,13.50
2023-01-07T00:18:50.695Z,13.70
2023-01-07T00:21:18.937Z,13.70
2023-01-07T00:23:46.951Z,13.30
2023-01-07T00:26:19.460Z,13.50
2023-01-07T00:28:48.985Z,15.00
2023-01-07T00:31:18.131Z,12.10
2023-01-07T00:33:58.516Z,14.70
2023-01-07T00:36:28.990Z,13.90
2023-01-07T00:38:58.062Z,17.40
2023-01-07T00:41:25.224Z,13.40
2023-01-07T00:43:52.677Z,13.20
2023-01-07T00:46:19.269Z,15.80
2023-01-07T00:48:46.382Z,17.50
2023-01-07T00:51:15.097Z,14.90
2023-01-07T00:53:42.465Z,13.10
2023-01-07T00:56:10.290Z,15.10
2023-01-07T00:58:37.234Z,12.90
2023-01-07T01:01:04.217Z,10.90
2023-01-07T01:03:32.600Z,13.00
2023-01-07T01:06:04.993Z,12.10
2023-01-07T01:08:32.373Z,14.20
2023-01-07T01:11:08.870Z,9.80
2023-01-07T01:13:36.398Z,10.50
2023-01-07T01:16:11.284Z,12.00
2023-01-07T01:18:37.901Z,12.00
2023-01-07T01:21:10.936Z,10.40
2023-01-07T01:23:37.678Z,10.60
2023-01-07T01:26:05.512Z,11.70
2023-01-07T01:28:33.986Z,15.30
2023-01-07T01:31:01.187Z,12.50
2023-01-07T01:33:32.010Z,12.70
2023-01-07T01:35:58.769Z,12.00
2023-01-07T01:38:25.394Z,12.30
2023-01-07T01:40:51.900Z,16.10
2023-01-07T01:43:32.517Z,13.50
2023-01-07T01:46:09.855Z,10.90
2023-01-07T01:48:41.153Z,11.70
2023-01-07T01:51:09.636Z,11.30
2023-01-07T01:53:37.347Z,11.20
2023-01-07T01:56:10.424Z,10.50
2023-01-07T01:58:45.037Z,10.80
2023-01-07T02:01:12.856Z,9.10
2023-01-07T02:03:39.567Z,11.00
2023-01-07T02:06:12.126Z,12.90
2023-01-07T02:08:38.550Z,8.60
2023-01-07T02:11:24.479Z,7.50
2023-01-07T02:14:08.085Z,7.60
2023-01-07T02:16:40.686Z,9.90
2023-01-07T02:19:36.587Z,9.90
2023-01-07T02:22:08.256Z,10.50
2023-01-07T02:25:12.870Z,10.50
2023-01-07T02:28:04.289Z,8.90
2023-01-07T02:30:46.186Z,13.10
2023-01-07T02:33:20.944Z,11.40
2023-01-07T02:36:35.798Z,10.30
2023-01-07T02:39:36.984Z,11.10
2023-01-07T02:42:18.831Z,9.30
2023-01-07T02:45:18.844Z,8.30
2023-01-07T02:48:11.200Z,10.40
2023-01-07T02:50:37.746Z,8.80
2023-01-07T02:53:10.054Z,8.50
2023-01-07T02:55:55.281Z,9.50
2023-01-07T02:58:45.514Z,10.10
2023-01-07T03:02:02.826Z,9.40
2023-01-07T03:04:46.109Z,9.10
2023-01-07T03:07:35.471Z,7.70
2023-01-07T03:10:10.964Z,10.70
2023-01-07T03:12:59.242Z,8.50
2023-01-07T03:15:43.841Z,6.40
2023-01-07T03:18:26.961Z,6.90
2023-01-07T03:21:03.710Z,9.50
2023-01-07T03:26:02.540Z,6.70
2023-01-07T03:28:32.550Z,8.70
2023-01-07T03:31:01.399Z,8.40
2023-01-07T03:33:32.129Z,7.10
2023-01-07T03:36:01.217Z,11.50
2023-01-07T03:38:29.163Z,6.40
2023-01-07T03:40:58.803Z,7.90
2023-01-07T03:43:25.368Z,8.10
2023-01-07T03:45:53.476Z,7.40
2023-01-07T03:48:20.339Z,8.00
2023-01-07T03:50:48.222Z,8.00
2023-01-07T03:53:14.839Z,6.50
2023-01-07T03:55:44.229Z,8.70
2023-01-07T03:58:10.824Z,8.60
2023-01-07T04:00:37.406Z,7.60
2023-01-07T04:03:11.262Z,10.00
2023-01-07T04:05:40.571Z,9.40
2023-01-07T04:08:07.844Z,7.10
2023-01-07T04:10:36.605Z,6.50
2023-01-07T04:13:03.348Z,9.20
2023-01-07T04:15:30.291Z,12.50
2023-01-07T04:17:57.025Z,10.00
2023-01-07T04:20:24.139Z,11.70
2023-01-07T04:22:50.990Z,11.30
2023-01-07T04:25:17.649Z,8.60
2023-01-07T04:27:44.583Z,8.60
2023-01-07T04:30:11.633Z,11.50
2023-01-07T04:32:38.410Z,8.10
2023-01-07T04:35:05.336Z,8.70
2023-01-07T04:37:31.966Z,9.20
2023-01-07T04:39:58.971Z,8.80
2023-01-07T04:42:25.989Z,39.90
2023-01-07T04:44:53.270Z,12.50
2023-01-07T04:47:19.962Z,12.60
2023-01-07T04:49:47.050Z,13.20
2023-01-07T04:52:13.965Z,11.30
2023-01-07T04:54:40.820Z,14.20
2023-01-07T04:57:07.816Z,8.70
2023-01-07T04:59:34.686Z,8.90
2023-01-07T05:02:01.742Z,9.60
2023-01-07T05:04:31.061Z,7.50
2023-01-07T05:06:57.971Z,9.40
2023-01-07T05:09:25.548Z,9.30
2023-01-07T05:11:52.111Z,8.50
2023-01-07T05:14:19.097Z,11.90
2023-01-07T05:16:47.125Z,8.70
2023-01-07T05:19:14.065Z,7.00
2023-01-07T05:21:43.249Z,7.20
2023-01-07T05:24:10.473Z,14.30
2023-01-07T05:26:37.190Z,10.90
2023-01-07T05:29:04.336Z,13.30
2023-01-07T05:31:32.099Z,12.60
2023-01-07T05:33:58.775Z,10.10
2023-01-07T05:36:25.491Z,11.10
2023-01-07T05:38:53.910Z,13.40
2023-01-07T05:41:20.780Z,12.50
2023-01-07T05:43:47.838Z,13.60
2023-01-07T05:46:14.328Z,13.10
2023-01-07T05:48:40.958Z,12.90
2023-01-07T05:51:07.474Z,14.00
2023-01-07T05:53:34.137Z,13.50
2023-01-07T05:56:00.700Z,12.80
2023-01-07T05:58:28.197Z,11.80
2023-01-07T06:00:55.405Z,11.10
2023-01-07T06:03:22.215Z,13.40
2023-01-07T06:05:49.179Z,14.60
2023-01-07T06:08:15.817Z,11.30
2023-01-07T06:10:43.736Z,11.30
2023-01-07T06:13:10.223Z,16.80
2023-01-07T06:15:36.979Z,27.30
2023-01-07T06:18:03.638Z,32.40
2023-01-07T06:20:33.996Z,23.60
2023-01-07T06:23:03.706Z,25.70
2023-01-07T06:25:30.183Z,28.30
2023-01-07T06:27:57.802Z,18.50
2023-01-07T06:30:24.800Z,15.00
2023-01-07T06:32:51.279Z,20.80
2023-01-07T06:35:18.102Z,32.10
2023-01-07T06:37:44.614Z,31.70
2023-01-07T06:40:12.214Z,45.00
2023-01-07T06:42:38.947Z,27.80
2023-01-07T06:45:06.517Z,24.80
2023-01-07T06:47:33.549Z,22.80
2023-01-07T06:50:00.151Z,16.60
2023-01-07T06:52:26.651Z,14.70
2023-01-07T06:54:53.222Z,13.40
2023-01-07T06:57:19.665Z,17.70
2023-01-07T06:59:46.179Z,16.20
2023-01-07T07:02:21.788Z,16.80
2023-01-07T07:04:49.420Z,11.60
2023-01-07T07:07:16.155Z,15.00
2023-01-07T07:09:43.015Z,12.50
2023-01-07T07:12:10.081Z,16.80
2023-01-07T07:14:36.611Z,17.20
2023-01-07T07:17:04.295Z,27.30
2023-01-07T07:19:30.728Z,23.80
2023-01-07T07:21:57.300Z,18.70
2023-01-07T07:24:24.026Z,20.10
2023-01-07T07:26:51.983Z,38.80
2023-01-07T07:29:21.027Z,44.00
2023-01-07T07:31:48.423Z,34.40
2023-01-07T07:34:15.043Z,27.60
2023-01-07T07:36:41.600Z,28.70
2023-01-07T07:39:08.160Z,25.90
2023-01-07T07:41:34.753Z,28.20
2023-01-07T07:44:05.221Z,19.60
2023-01-07T07:46:31.775Z,25.80
2023-01-07T07:48:58.336Z,24.50
2023-01-07T07:51:24.783Z,22.90
2023-01-07T07:53:51.255Z,24.50
2023-01-07T07:56:17.723Z,17.80
2023-01-07T07:58:44.232Z,16.40
2023-01-07T08:01:10.845Z,14.50
2023-01-07T08:03:37.396Z,13.10
2023-01-07T08:06:04.467Z,15.20
2023-01-07T08:08:30.911Z,16.60
2023-01-07T08:10:57.404Z,14.50
2023-01-07T08:13:25.212Z,12.90
2023-01-07T08:15:51.831Z,11.10
2023-01-07T08:18:19.192Z,14.10
2023-01-07T08:20:46.632Z,12.90
2023-01-07T08:23:13.249Z,14.60
2023-01-07T08:25:39.885Z,18.20
2023-01-07T08:28:06.473Z,16.70
2023-01-07T08:30:33.395Z,15.50
2023-01-07T08:33:00.680Z,13.60
2023-01-07T08:35:27.255Z,17.70
2023-01-07T08:38:01.531Z,17.20
2023-01-07T08:40:28.647Z,17.80
2023-01-07T08:43:03.386Z,14.90
2023-01-07T08:45:30.815Z,19.80
2023-01-07T08:47:58.067Z,22.50
2023-01-07T08:50:26.020Z,19.10
2023-01-07T08:52:52.931Z,16.10
2023-01-07T08:55:20.411Z,19.50
2023-01-07T08:57:48.129Z,20.00
2023-01-07T09:00:16.796Z,19.20
2023-01-07T09:02:43.923Z,16.90
2023-01-07T09:05:11.233Z,16.30
2023-01-07T09:07:37.930Z,14.90
2023-01-07T09:10:05.354Z,21.80
2023-01-07T09:12:32.302Z,20.30
2023-01-07T09:14:58.963Z,19.50
2023-01-07T09:17:25.797Z,30.60
2023-01-07T09:19:52.334Z,18.80
2023-01-07T09:22:18.963Z,23.20
2023-01-07T09:24:47.876Z,23.50
2023-01-07T09:27:15.975Z,19.20
2023-01-07T09:29:42.737Z,17.50
2023-01-07T09:32:09.981Z,15.80
2023-01-07T09:34:37.739Z,16.60
2023-01-07T09:37:05.491Z,13.40
2023-01-07T09:39:32.418Z,14.00
2023-01-07T09:42:05.309Z,14.30
2023-01-07T09:44:40.631Z,10.00
2023-01-07T09:47:24.090Z,12.90
2023-01-07T09:49:58.020Z,11.70
2023-01-07T09:52:35.272Z,35.00
2023-01-07T09:55:13.522Z,20.10
2023-01-07T09:57:40.128Z,21.70
2023-01-07T10:00:16.154Z,18.50
2023-01-07T10:02:48.805Z,10.60
2023-01-07T10:05:29.851Z,14.60
2023-01-07T10:11:15.815Z,9.70
2023-01-07T10:14:06.996Z,11.60
2023-01-07T10:19:24.960Z,13.00
2023-01-07T10:21:55.153Z,8.90
2023-01-07T10:24:28.088Z,10.20
2023-01-07T10:27:00.877Z,11.00
2023-01-07T10:29:57.906Z,8.60
2023-01-07T10:32:31.433Z,9.40
2023-01-07T10:35:00.823Z,12.50
2023-01-07T10:37:35.637Z,13.00
2023-01-07T10:40:11.450Z,12.10
2023-01-07T10:43:22.958Z,13.20
2023-01-07T10:46:11.252Z,12.90
2023-01-07T10:49:01.048Z,16.80
2023-01-07T10:51:49.065Z,23.30
2023-01-07T10:54:43.633Z,23.90
2023-01-07T10:57:31.836Z,22.50
2023-01-07T11:00:02.132Z,18.70
2023-01-07T11:02:29.078Z,17.50
2023-01-07T11:04:59.599Z,19.60
2023-01-07T11:07:50.411Z,20.60
2023-01-07T11:10:19.998Z,25.50
2023-01-07T11:12:54.946Z,16.00
2023-01-07T11:15:32.239Z,16.50
2023-01-07T11:18:13.768Z,14.70
2023-01-07T11:20:46.525Z,16.10
2023-01-07T11:23:34.187Z,12.80
2023-01-07T11:26:12.908Z,15.30
2023-01-07T11:28:46.511Z,17.80
2023-01-07T11:31:17.179Z,18.50
2023-01-07T11:34:03.601Z,14.60
2023-01-07T11:36:43.118Z,15.00
2023-01-07T11:39:20.481Z,9.90
2023-01-07T11:41:56.910Z,11.30
2023-01-07T11:44:27.059Z,13.80
2023-01-07T11:46:54.544Z,15.30
2023-01-07T11:49:30.254Z,13.90
2023-01-07T11:51:58.010Z,28.30
2023-01-07T11:54:27.173Z,13.00
2023-01-07T11:57:18.505Z,18.10
2023-01-07T11:59:45.068Z,17.00
2023-01-07T12:02:26.640Z,13.50
2023-01-07T12:05:31.176Z,14.80
2023-01-07T12:07:58.551Z,17.50
2023-01-07T12:10:29.745Z,16.40
2023-01-07T12:12:58.273Z,19.80
2023-01-07T12:15:36.713Z,23.50
2023-01-07T12:18:06.323Z,24.80
2023-01-07T12:20:59.051Z,31.90
2023-01-07T12:23:47.455Z,24.40
2023-01-07T12:26:36.970Z,23.20
2023-01-07T12:29:25.366Z,46.60
2023-01-07T12:32:10.005Z,19.50
2023-01-07T12:34:53.966Z,14.00
2023-01-07T12:37:26.625Z,18.10
2023-01-07T12:40:03.803Z,23.50
2023-01-07T12:42:37.036Z,20.90
2023-01-07T12:45:13.488Z,14.60
2023-01-07T12:47:49.934Z,15.90
2023-01-07T12:50:38.118Z,16.80
2023-01-07T12:53:22.883Z,12.10
2023-01-07T12:55:54.205Z,14.70
2023-01-07T12:58:54.432Z,9.40
2023-01-07T13:01:27.174Z,9.60
2023-01-07T13:03:53.834Z,12.10
2023-01-07T13:06:44.401Z,22.80
2023-01-07T13:09:32.725Z,25.50
2023-01-07T13:12:47.623Z,21.20
2023-01-07T13:15:22.759Z,33.90
2023-01-07T13:17:50.845Z,32.40
2023-01-07T13:20:53.773Z,18.50
2023-01-07T13:23:56.000Z,19.40
2023-01-07T13:26:31.472Z,21.20
2023-01-07T13:29:10.796Z,13.10
2023-01-07T13:31:57.548Z,11.20
2023-01-07T13:34:42.989Z,10.80
2023-01-07T13:37:37.266Z,12.90
2023-01-07T13:40:12.987Z,11.70
2023-01-07T13:42:49.778Z,15.90
2023-01-07T13:45:24.028Z,13.10
2023-01-07T13:47:54.060Z,16.60
2023-01-07T13:50:34.953Z,17.50
2023-01-07T13:53:07.228Z,24.80
2023-01-07T13:55:45.428Z,25.30
2023-01-07T13:58:30.334Z,23.00
2023-01-07T14:01:03.128Z,25.30
2023-01-07T14:03:49.390Z,25.90
2023-01-07T14:06:23.153Z,22.10
2023-01-07T14:08:57.908Z,18.30
2023-01-07T14:11:30.192Z,12.90
2023-01-07T14:14:18.670Z,13.40
2023-01-07T14:16:51.340Z,18.20
2023-01-07T14:19:42.470Z,17.60
2023-01-07T14:25:11.029Z,19.20
2023-01-07T14:27:52.084Z,19.60
2023-01-07T14:30:22.881Z,25.00
2023-01-07T14:35:39.776Z,14.00
2023-01-07T14:38:28.287Z,14.40
2023-01-07T14:41:09.992Z,15.50
2023-01-07T14:43:42.811Z,13.10
2023-01-07T14:46:45.553Z,15.50
2023-01-07T14:49:22.292Z,13.80
2023-01-07T14:51:59.071Z,14.20
2023-01-07T14:54:39.843Z,12.30
2023-01-07T14:57:14.712Z,16.10
2023-01-07T14:59:44.249Z,13.40
2023-01-07T15:02:29.758Z,19.30
2023-01-07T15:05:06.401Z,16.90
2023-01-07T15:07:36.571Z,19.10
2023-01-07T15:10:45.753Z,18.70
2023-01-07T15:13:37.623Z,24.00
2023-01-07T15:16:10.991Z,29.80
2023-01-07T15:18:50.052Z,44.30
2023-01-07T15:21:19.577Z,43.60
2023-01-07T15:24:09.883Z,55.60
2023-01-07T15:26:43.950Z,52.40
2023-01-07T15:29:20.737Z,48.60
2023-01-07T15:32:16.671Z,47.80
2023-01-07T15:34:43.297Z,44.10
2023-01-07T15:37:14.669Z,66.50
2023-01-07T15:39:48.940Z,58.00
2023-01-07T15:42:19.666Z,61.80
2023-01-07T15:47:40.680Z,97.80
2023-01-07T15:50:27.472Z,54.90
2023-01-07T15:52:55.706Z,62.00
2023-01-07T15:55:44.213Z,62.80
2023-01-07T15:58:34.203Z,58.00
2023-01-07T16:01:02.998Z,68.50
2023-01-07T16:03:30.902Z,60.20
2023-01-07T16:05:59.153Z,56.30
2023-01-07T16:08:29.569Z,59.20
2023-01-07T16:11:04.431Z,51.20
2023-01-07T16:13:31.957Z,48.40
2023-01-07T16:16:02.623Z,62.20
2023-01-07T16:18:33.129Z,71.00
2023-01-07T16:21:08.528Z,114.20
2023-01-07T16:23:37.271Z,106.30
2023-01-07T16:26:16.171Z,112.20
2023-01-07T16:28:50.695Z,94.40
2023-01-07T16:31:21.400Z,103.00
2023-01-07T16:33:52.033Z,93.40
2023-01-07T16:36:27.773Z,81.50
2023-01-07T16:38:58.265Z,78.50
2023-01-07T16:41:27.518Z,76.40
2023-01-07T16:43:58.640Z,77.30
2023-01-07T16:46:38.351Z,78.90
2023-01-07T16:49:10.959Z,66.90
2023-01-07T16:52:05.903Z,66.20
2023-01-07T16:54:36.761Z,57.20
2023-01-07T16:59:40.504Z,69.40
2023-01-07T17:02:32.750Z,62.40
2023-01-07T17:05:21.638Z,67.30
2023-01-07T17:08:00.605Z,84.20
2023-01-07T17:10:27.087Z,102.70
2023-01-07T17:13:12.454Z,97.70
2023-01-07T17:15:39.009Z,62.40
2023-01-07T17:18:11.712Z,62.80
2023-01-07T17:20:42.467Z,51.30
2023-01-07T17:23:38.860Z,65.00
2023-01-07T17:26:08.500Z,58.90
2023-01-07T17:28:47.222Z,54.20
2023-01-07T17:31:14.239Z,53.30
2023-01-07T17:33:41.134Z,61.50
2023-01-07T17:36:26.538Z,66.70
2023-01-07T17:38:53.190Z,76.50
2023-01-07T17:41:40.792Z,91.70
2023-01-07T17:44:13.832Z,93.20
2023-01-07T17:46:41.628Z,91.60
2023-01-07T17:49:10.824Z,96.90
2023-01-07T17:51:40.935Z,85.30
2023-01-07T17:54:20.508Z,76.20
2023-01-07T17:56:47.863Z,78.50
2023-01-07T17:59:16.670Z,72.30
2023-01-07T18:01:44.499Z,79.90
2023-01-07T18:04:12.666Z,63.70
2023-01-07T18:06:41.702Z,60.00
2023-01-07T18:09:09.879Z,69.50
2023-01-07T18:12:01.748Z,60.20
2023-01-07T18:14:28.673Z,85.00
2023-01-07T18:16:56.787Z,85.70
2023-01-07T18:19:23.350Z,83.60
2023-01-07T18:21:49.855Z,72.70
2023-01-07T18:24:19.877Z,83.90
2023-01-07T18:26:47.091Z,95.10
2023-01-07T18:29:13.672Z,104.00
2023-01-07T18:31:43.776Z,155.10
2023-01-07T18:34:13.129Z,125.00
2023-01-07T18:36:40.835Z,80.20
2023-01-07T18:39:09.485Z,72.70
2023-01-07T18:41:38.720Z,61.00
2023-01-07T18:44:05.251Z,64.00
2023-01-07T18:46:31.787Z,65.30
2023-01-07T18:48:59.338Z,60.10
2023-01-07T18:51:25.942Z,61.40
2023-01-07T18:53:52.405Z,57.40
2023-01-07T18:56:19.612Z,60.80
2023-01-07T18:58:46.399Z,57.70
2023-01-07T19:01:13.126Z,53.40
2023-01-07T19:03:40.594Z,55.00
2023-01-07T19:06:08.910Z,53.40
2023-01-07T19:08:35.937Z,56.50
2023-01-07T19:11:12.162Z,54.90
2023-01-07T19:13:38.921Z,58.10
2023-01-07T19:16:07.300Z,58.60
2023-01-07T19:18:34.148Z,57.70
2023-01-07T19:21:05.594Z,57.80
2023-01-07T19:23:32.580Z,56.90
2023-01-07T19:26:01.610Z,58.80
2023-01-07T19:28:28.279Z,55.30
2023-01-07T19:30:55.067Z,59.20
2023-01-07T19:33:21.757Z,53.20
2023-01-07T19:35:48.302Z,51.70
2023-01-07T19:38:15.895Z,48.30
2023-01-07T19:40:45.493Z,53.90
2023-01-07T19:43:12.686Z,56.50
2023-01-07T19:45:40.391Z,53.10
2023-01-07T19:48:07.236Z,45.00
2023-01-07T19:50:33.956Z,50.70
2023-01-07T19:53:00.579Z,47.30
2023-01-07T19:55:27.241Z,46.30
2023-01-07T19:57:55.231Z,52.30
2023-01-07T20:00:22.146Z,42.00
2023-01-07T20:02:49.012Z,43.40
2023-01-07T20:05:15.658Z,39.40
2023-01-07T20:07:42.263Z,40.50
2023-01-07T20:10:10.592Z,40.60
2023-01-07T20:12:37.264Z,38.70
2023-01-07T20:15:04.015Z,39.30
2023-01-07T20:17:30.709Z,43.00
2023-01-07T20:19:57.235Z,40.40
2023-01-07T20:22:24.259Z,37.50
2023-01-07T20:24:50.887Z,35.90
2023-01-07T20:27:17.465Z,41.70
2023-01-07T20:29:44.810Z,37.30
2023-01-07T20:32:11.336Z,39.90
2023-01-07T20:34:38.056Z,41.40
2023-01-07T20:37:04.786Z,42.80
2023-01-07T20:39:31.402Z,39.00
2023-01-07T20:41:58.040Z,35.90
2023-01-07T20:44:24.667Z,39.30
2023-01-07T20:46:51.172Z,37.50
2023-01-07T20:49:17.724Z,41.40
2023-01-07T20:51:44.440Z,39.30
2023-01-07T20:54:12.626Z,36.10
2023-01-07T20:56:39.743Z,35.10
2023-01-07T20:59:06.329Z,38.70
2023-01-07T21:01:33.042Z,38.10
2023-01-07T21:04:01.189Z,36.00
2023-01-07T21:06:28.009Z,33.30
2023-01-07T21:08:54.595Z,36.80
2023-01-07T21:11:22.877Z,39.70
2023-01-07T21:13:51.228Z,31.80
2023-01-07T21:16:18.435Z,36.60
2023-01-07T21:18:45.028Z,45.00
2023-01-07T21:21:14.866Z,34.90
2023-01-07T21:23:41.945Z,35.50
2023-01-07T21:26:09.136Z,36.70
2023-01-07T21:28:35.732Z,36.60
2023-01-07T21:31:05.546Z,37.40
2023-01-07T21:33:32.911Z,40.80
2023-01-07T21:35:59.581Z,37.10
2023-01-07T21:38:26.120Z,39.70
2023-01-07T21:40:53.461Z,34.50
2023-01-07T21:43:19.914Z,33.10
2023-01-07T21:45:46.569Z,33.70
2023-01-07T21:48:13.138Z,30.60
2023-01-07T21:50:39.917Z,32.50
2023-01-07T21:53:06.595Z,28.80
2023-01-07T21:55:37.136Z,30.60
2023-01-07T21:58:03.696Z,30.50
2023-01-07T22:00:30.286Z,27.30
2023-01-07T22:02:56.882Z,28.80
2023-01-07T22:05:23.414Z,28.50
2023-01-07T22:07:49.966Z,32.80
2023-01-07T22:10:16.596Z,32.90
2023-01-07T22:12:43.117Z,31.30
2023-01-07T22:15:10.034Z,33.10
2023-01-07T22:17:36.512Z,33.40
2023-01-07T22:20:03.242Z,33.20
2023-01-07T22:22:29.723Z,36.20
2023-01-07T22:24:56.245Z,34.70
2023-01-07T22:27:22.659Z,41.20
2023-01-07T22:29:49.251Z,40.70
2023-01-07T22:32:15.807Z,56.60
2023-01-07T22:34:42.393Z,62.40
2023-01-07T22:37:15.567Z,49.60
2023-01-07T22:39:56.465Z,40.50
2023-01-07T22:42:39.022Z,41.80
2023-01-07T22:45:15.443Z,43.30
2023-01-07T22:47:45.227Z,40.50
2023-01-07T22:50:13.878Z,43.10
2023-01-07T22:52:41.453Z,43.20
2023-01-07T22:55:08.787Z,43.40
2023-01-07T22:57:35.379Z,47.60
2023-01-07T23:00:05.172Z,43.10
2023-01-07T23:02:31.659Z,42.70
2023-01-07T23:04:58.608Z,47.90
2023-01-07T23:07:25.095Z,47.20
2023-01-07T23:09:51.754Z,43.60
2023-01-07T23:12:18.315Z,42.90
2023-01-07T23:14:44.761Z,41.60
2023-01-07T23:17:11.429Z,42.70
2023-01-07T23:19:38.144Z,44.80
2023-01-07T23:22:04.991Z,46.20
2023-01-07T23:24:31.475Z,46.60
2023-01-07T23:26:58.065Z,46.50
2023-01-07T23:29:24.572Z,48.20
2023-01-07T23:31:51.252Z,46.20
2023-01-07T23:34:18.719Z,38.80
2023-01-07T23:36:45.420Z,42.50
2023-01-07T23:39:12.380Z,41.80
2023-01-07T23:41:38.889Z,41.80
2023-01-07T23:44:05.551Z,51.50
2023-01-07T23:46:32.335Z,41.20
2023-01-07T23:48:58.961Z,42.00
2023-01-07T23:51:25.524Z,42.50
2023-01-07T23:53:52.146Z,41.80
2023-01-07T23:56:19.990Z,44.90
2023-01-07T23:58:47.746Z,47.60
